createdAt,value
2023-04-12T00:00:10.278Z,6.29
2023-04-12T00:00:41.917Z,6.32
2023-04-12T00:01:13.562Z,6.28
2023-04-12T00:01:45.281Z,6.29
2023-04-12T00:02:17.252Z,6.26
2023-04-12T00:02:54.088Z,6.24
2023-04-12T00:03:27.028Z,6.26
2023-04-12T00:03:59.155Z,6.24
2023-04-12T00:04:34.800Z,6.28
2023-04-12T00:05:09.511Z,6.29
2023-04-12T00:05:47.158Z,6.29
2023-04-12T00:06:19.100Z,6.26
2023-04-12T00:06:50.718Z,6.26
2023-04-12T00:07:26.161Z,6.24
2023-04-12T00:07:58.263Z,6.28
2023-04-12T00:08:33.805Z,6.28
2023-04-12T00:09:05.620Z,6.24
2023-04-12T00:09:38.009Z,6.26
2023-04-12T00:10:10.373Z,6.26
2023-04-12T00:10:42.008Z,6.24
2023-04-12T00:11:13.863Z,6.28
2023-04-12T00:11:45.559Z,6.29
2023-04-12T00:12:20.760Z,6.28
2023-04-12T00:12:52.856Z,6.28
2023-04-12T00:13:24.488Z,6.29
2023-04-12T00:13:56.276Z,6.29
2023-04-12T00:14:28.344Z,6.30
2023-04-12T00:15:01.466Z,6.32
2023-04-12T00:15:33.203Z,6.33
2023-04-12T00:16:05.320Z,6.33
2023-04-12T00:16:38.265Z,6.30
2023-04-12T00:17:09.901Z,6.36
2023-04-12T00:17:41.888Z,6.36
2023-04-12T00:18:13.593Z,6.35
2023-04-12T00:18:45.682Z,6.38
2023-04-12T00:19:17.927Z,6.33
2023-04-12T00:19:50.212Z,6.33
2023-04-12T00:20:21.827Z,6.35
2023-04-12T00:20:55.628Z,6.30
2023-04-12T00:21:28.859Z,6.29
2023-04-12T00:22:00.939Z,6.29
2023-04-12T00:22:32.613Z,6.28
2023-04-12T00:23:04.278Z,6.28
2023-04-12T00:23:38.086Z,6.25
2023-04-12T00:24:09.816Z,6.26
2023-04-12T00:24:41.801Z,6.22
2023-04-12T00:25:13.432Z,6.26
2023-04-12T00:25:45.592Z,6.24
2023-04-12T00:26:17.180Z,6.22
2023-04-12T00:26:48.917Z,6.22
2023-04-12T00:27:20.631Z,6.22
2023-04-12T00:27:52.243Z,6.18
2023-04-12T00:28:23.821Z,6.19
2023-04-12T00:28:56.061Z,6.21
2023-04-12T00:29:28.322Z,6.22
2023-04-12T00:29:59.968Z,6.19
2023-04-12T00:30:32.044Z,6.19
2023-04-12T00:31:03.731Z,6.17
2023-04-12T00:31:35.580Z,6.15
2023-04-12T00:32:07.397Z,6.18
2023-04-12T00:32:39.029Z,6.21
2023-04-12T00:33:10.815Z,6.14
2023-04-12T00:33:42.418Z,6.14
2023-04-12T00:34:14.041Z,6.14
2023-04-12T00:34:46.350Z,6.12
2023-04-12T00:35:18.003Z,6.14
2023-04-12T00:35:49.684Z,6.11
2023-04-12T00:36:22.180Z,6.09
2023-04-12T00:36:53.840Z,6.12
2023-04-12T00:37:25.492Z,6.14
2023-04-12T00:37:57.108Z,6.14
2023-04-12T00:38:28.716Z,6.15
2023-04-12T00:39:00.507Z,6.15
2023-04-12T00:39:32.072Z,6.17
2023-04-12T00:40:03.916Z,6.17
2023-04-12T00:40:35.921Z,6.18
2023-04-12T00:41:07.661Z,6.15
2023-04-12T00:41:39.390Z,6.15
2023-04-12T00:42:10.994Z,6.14
2023-04-12T00:42:42.641Z,6.14
2023-04-12T00:43:18.480Z,6.17
2023-04-12T00:43:50.474Z,6.14
2023-04-12T00:44:23.140Z,6.12
2023-04-12T00:44:54.731Z,6.11
2023-04-12T00:45:26.401Z,6.12
2023-04-12T00:45:58.634Z,6.14
2023-04-12T00:46:31.070Z,6.12
2023-04-12T00:47:06.979Z,6.11
2023-04-12T00:47:42.982Z,6.11
2023-04-12T00:48:16.206Z,6.08
2023-04-12T00:48:48.426Z,6.17
2023-04-12T00:49:20.370Z,6.09
2023-04-12T00:49:52.096Z,6.07
2023-04-12T00:50:24.144Z,6.09
2023-04-12T00:50:55.760Z,6.04
2023-04-12T00:51:27.464Z,6.04
2023-04-12T00:52:05.169Z,6.08
2023-04-12T00:52:37.815Z,6.08
2023-04-12T00:53:11.873Z,6.07
2023-04-12T00:53:43.912Z,6.07
2023-04-12T00:54:18.198Z,6.08
2023-04-12T00:54:50.103Z,6.07
2023-04-12T00:55:21.790Z,6.04
2023-04-12T00:55:54.622Z,6.07
2023-04-12T00:56:27.968Z,6.05
2023-04-12T00:57:01.086Z,5.99
2023-04-12T00:57:36.721Z,5.98
2023-04-12T00:58:08.375Z,5.97
2023-04-12T00:58:39.995Z,5.95
2023-04-12T00:59:11.726Z,5.93
2023-04-12T00:59:43.358Z,5.91
2023-04-12T01:00:17.072Z,5.90
2023-04-12T01:00:53.110Z,5.91
2023-04-12T01:01:24.954Z,5.88
2023-04-12T01:01:57.813Z,5.90
2023-04-12T01:02:31.069Z,5.91
2023-04-12T01:03:05.482Z,5.93
2023-04-12T01:03:43.197Z,5.90
2023-04-12T01:04:15.734Z,5.97
2023-04-12T01:04:50.704Z,5.95
2023-04-12T01:05:23.893Z,5.91
2023-04-12T01:06:16.442Z,5.94
2023-04-12T01:06:51.015Z,5.91
2023-04-12T01:07:48.163Z,5.94
2023-04-12T01:08:34.891Z,5.90
2023-04-12T01:09:28.340Z,5.91
2023-04-12T01:10:27.363Z,5.94
2023-04-12T01:11:13.040Z,5.94
2023-04-12T01:11:53.763Z,5.98
2023-04-12T01:12:40.512Z,5.88
2023-04-12T01:13:27.045Z,5.88
2023-04-12T01:14:15.249Z,5.91
2023-04-12T01:15:02.671Z,5.87
2023-04-12T01:15:39.403Z,5.87
2023-04-12T01:16:31.112Z,5.88
2023-04-12T01:17:07.311Z,5.93
2023-04-12T01:17:47.790Z,5.94
2023-04-12T01:18:23.761Z,5.93
2023-04-12T01:19:03.819Z,5.91
2023-04-12T01:19:47.376Z,5.91
2023-04-12T01:20:23.662Z,5.88
2023-04-12T01:21:03.327Z,5.88
2023-04-12T01:22:05.772Z,5.88
2023-04-12T01:23:12.627Z,5.83
2023-04-12T01:23:50.471Z,5.87
2023-04-12T01:24:43.916Z,5.84
2023-04-12T01:25:46.931Z,5.81
2023-04-12T01:26:34.712Z,5.81
2023-04-12T01:27:13.632Z,5.83
2023-04-12T01:27:48.450Z,5.84
2023-04-12T01:28:27.848Z,5.86
2023-04-12T01:29:02.624Z,5.83
2023-04-12T01:29:34.511Z,5.83
2023-04-12T01:30:08.133Z,5.78
2023-04-12T01:30:41.476Z,5.78
2023-04-12T01:31:14.234Z,5.78
2023-04-12T01:32:10.996Z,5.80
2023-04-12T01:32:45.566Z,5.71
2023-04-12T01:33:18.529Z,5.73
2023-04-12T01:33:51.987Z,5.77
2023-04-12T01:34:25.404Z,5.78
2023-04-12T01:34:59.821Z,5.75
2023-04-12T01:35:34.982Z,5.71
2023-04-12T01:36:27.449Z,5.71
2023-04-12T01:37:02.199Z,5.71
2023-04-12T01:37:34.940Z,5.67
2023-04-12T01:38:07.273Z,5.64
2023-04-12T01:38:41.780Z,5.64
2023-04-12T01:39:13.475Z,5.67
2023-04-12T01:39:45.527Z,5.64
2023-04-12T01:40:18.597Z,5.60
2023-04-12T01:40:50.643Z,5.57
2023-04-12T01:41:22.664Z,5.61
2023-04-12T01:41:54.342Z,5.68
2023-04-12T01:42:25.909Z,5.67
2023-04-12T01:43:14.789Z,5.63
2023-04-12T01:43:47.529Z,5.61
2023-04-12T01:44:19.353Z,5.59
2023-04-12T01:44:51.041Z,5.57
2023-04-12T01:45:22.928Z,5.60
2023-04-12T01:45:54.609Z,5.60
2023-04-12T01:46:26.497Z,5.64
2023-04-12T01:46:58.871Z,5.67
2023-04-12T01:47:30.669Z,5.64
2023-04-12T01:48:08.927Z,5.66
2023-04-12T01:48:42.070Z,5.64
2023-04-12T01:49:15.588Z,5.61
2023-04-12T01:50:22.679Z,5.63
2023-04-12T01:51:19.495Z,5.64
2023-04-12T01:52:12.200Z,5.64
2023-04-12T01:52:52.970Z,5.60
2023-04-12T01:53:50.786Z,5.66
2023-04-12T01:54:28.513Z,5.60
2023-04-12T01:55:04.865Z,5.59
2023-04-12T01:55:39.827Z,5.59
2023-04-12T01:56:12.106Z,5.56
2023-04-12T01:56:47.694Z,5.59
2023-04-12T01:57:21.611Z,5.61
2023-04-12T01:57:53.528Z,5.60
2023-04-12T01:58:25.742Z,5.63
2023-04-12T01:58:59.135Z,5.63
2023-04-12T01:59:34.815Z,5.66
2023-04-12T02:00:08.258Z,5.67
2023-04-12T02:00:42.705Z,5.64
2023-04-12T02:01:17.982Z,5.61
2023-04-12T02:01:50.936Z,5.64
2023-04-12T02:02:23.076Z,5.64
2023-04-12T02:02:55.104Z,5.64
2023-04-12T02:03:30.470Z,5.63
2023-04-12T02:04:04.763Z,5.60
2023-04-12T02:04:38.114Z,5.56
2023-04-12T02:05:11.240Z,5.54
2023-04-12T02:05:43.241Z,5.54
2023-04-12T02:06:15.957Z,5.56
2023-04-12T02:06:48.115Z,5.49
2023-04-12T02:07:20.672Z,5.53
2023-04-12T02:07:52.539Z,5.54
2023-04-12T02:08:25.117Z,5.51
2023-04-12T02:08:59.909Z,5.53
2023-04-12T02:09:37.763Z,5.50
2023-04-12T02:10:14.852Z,5.47
2023-04-12T02:10:46.503Z,5.46
2023-04-12T02:11:18.208Z,5.43
2023-04-12T02:11:50.715Z,5.42
2023-04-12T02:12:23.091Z,5.35
2023-04-12T02:12:55.480Z,5.36
2023-04-12T02:13:27.049Z,5.35
2023-04-12T02:13:59.044Z,5.36
2023-04-12T02:14:31.616Z,5.39
2023-04-12T02:15:04.326Z,5.42
2023-04-12T02:15:37.506Z,5.40
2023-04-12T02:16:10.946Z,5.38
2023-04-12T02:16:44.700Z,5.32
2023-04-12T02:17:16.489Z,5.35
2023-04-12T02:17:48.139Z,5.40
2023-04-12T02:18:19.750Z,5.42
2023-04-12T02:18:51.812Z,5.43
2023-04-12T02:19:23.433Z,5.39
2023-04-12T02:19:55.321Z,5.38
2023-04-12T02:20:27.360Z,5.38
2023-04-12T02:20:58.976Z,5.35
2023-04-12T02:21:40.079Z,5.30
2023-04-12T02:22:11.716Z,5.29
2023-04-12T02:22:43.283Z,5.30
2023-04-12T02:23:14.878Z,5.25
2023-04-12T02:23:46.999Z,5.28
2023-04-12T02:24:18.625Z,5.26
2023-04-12T02:24:50.900Z,5.26
2023-04-12T02:25:22.838Z,5.25
2023-04-12T02:25:54.409Z,5.25
2023-04-12T02:26:26.073Z,5.19
2023-04-12T02:27:01.543Z,5.22
2023-04-12T02:27:33.187Z,5.23
2023-04-12T02:28:04.764Z,5.18
2023-04-12T02:28:38.618Z,5.19
2023-04-12T02:29:10.681Z,5.15
2023-04-12T02:29:42.329Z,5.12
2023-04-12T02:30:14.438Z,5.11
2023-04-12T02:30:46.676Z,5.09
2023-04-12T02:31:18.751Z,5.04
2023-04-12T02:31:51.259Z,5.07
2023-04-12T02:32:22.891Z,5.05
2023-04-12T02:32:56.241Z,5.07
2023-04-12T02:33:28.373Z,5.02
2023-04-12T02:34:00.232Z,5.02
2023-04-12T02:34:34.420Z,5.04
2023-04-12T02:35:08.534Z,5.02
2023-04-12T02:35:40.251Z,5.02
2023-04-12T02:36:11.903Z,5.07
2023-04-12T02:36:47.453Z,5.08
2023-04-12T02:37:22.011Z,5.08
2023-04-12T02:37:55.016Z,5.09
2023-04-12T02:38:27.137Z,5.11
2023-04-12T02:38:58.916Z,5.11
2023-04-12T02:39:32.320Z,5.11
2023-04-12T02:40:06.162Z,5.16
2023-04-12T02:40:42.201Z,5.16
2023-04-12T02:41:20.698Z,5.15
2023-04-12T02:41:52.324Z,5.20
2023-04-12T02:42:23.997Z,5.15
2023-04-12T02:42:55.677Z,5.20
2023-04-12T02:43:27.294Z,5.16
2023-04-12T02:43:59.042Z,5.18
2023-04-12T02:44:31.313Z,5.22
2023-04-12T02:45:04.181Z,5.16
2023-04-12T02:45:36.485Z,5.15
2023-04-12T02:46:08.218Z,5.16
2023-04-12T02:46:39.908Z,5.13
2023-04-12T02:47:11.977Z,5.12
2023-04-12T02:47:43.769Z,5.12
2023-04-12T02:48:15.658Z,5.08
2023-04-12T02:48:48.378Z,5.07
2023-04-12T02:49:20.050Z,5.09
2023-04-12T02:49:52.110Z,5.08
2023-04-12T02:50:24.281Z,5.04
2023-04-12T02:50:56.092Z,5.05
2023-04-12T02:51:28.302Z,5.07
2023-04-12T02:51:59.958Z,5.01
2023-04-12T02:52:33.125Z,5.02
2023-04-12T02:53:04.718Z,5.08
2023-04-12T02:53:36.350Z,5.04
2023-04-12T02:54:08.068Z,5.08
2023-04-12T02:54:39.652Z,5.11
2023-04-12T02:55:11.321Z,5.08
2023-04-12T02:55:43.495Z,5.07
2023-04-12T02:56:15.795Z,4.99
2023-04-12T02:56:47.406Z,5.04
2023-04-12T02:57:21.135Z,5.02
2023-04-12T02:57:53.668Z,5.01
2023-04-12T02:58:25.571Z,4.96
2023-04-12T02:58:57.226Z,4.95
2023-04-12T02:59:29.167Z,4.92
2023-04-12T03:00:01.692Z,4.87
2023-04-12T03:00:33.713Z,4.81
2023-04-12T03:01:07.649Z,4.87
2023-04-12T03:01:40.747Z,4.85
2023-04-12T03:02:12.478Z,4.84
2023-04-12T03:02:44.823Z,4.81
2023-04-12T03:03:17.977Z,4.75
2023-04-12T03:03:50.167Z,4.75
2023-04-12T03:04:22.816Z,4.79
2023-04-12T03:04:54.916Z,4.79
2023-04-12T03:05:27.405Z,4.82
2023-04-12T03:05:59.352Z,4.85
2023-04-12T03:06:32.142Z,4.79
2023-04-12T03:07:03.903Z,4.79
2023-04-12T03:07:38.836Z,4.78
2023-04-12T03:08:10.444Z,4.81
2023-04-12T03:08:42.084Z,4.78
2023-04-12T03:09:13.701Z,4.81
2023-04-12T03:09:46.887Z,4.82
2023-04-12T03:10:18.514Z,4.79
2023-04-12T03:10:50.551Z,4.81
2023-04-12T03:11:22.150Z,4.77
2023-04-12T03:11:53.727Z,4.79
2023-04-12T03:12:25.581Z,4.77
2023-04-12T03:12:57.182Z,4.77
2023-04-12T03:13:28.818Z,4.79
2023-04-12T03:14:00.383Z,4.75
2023-04-12T03:14:31.986Z,4.77
2023-04-12T03:15:04.265Z,4.72
2023-04-12T03:15:35.966Z,4.72
2023-04-12T03:16:23.568Z,4.78
2023-04-12T03:16:55.234Z,4.68
2023-04-12T03:17:26.870Z,4.70
2023-04-12T03:17:58.554Z,4.68
2023-04-12T03:18:30.165Z,4.65
2023-04-12T03:19:01.724Z,4.62
2023-04-12T03:19:35.169Z,4.62
2023-04-12T03:20:10.094Z,4.61
2023-04-12T03:20:46.070Z,4.61
2023-04-12T03:21:19.244Z,4.61
2023-04-12T03:21:51.192Z,4.64
2023-04-12T03:22:23.586Z,4.62
2023-04-12T03:22:55.357Z,4.64
2023-04-12T03:23:26.952Z,4.61
2023-04-12T03:23:59.087Z,4.61
2023-04-12T03:24:34.185Z,4.64
2023-04-12T03:25:06.221Z,4.65
2023-04-12T03:25:37.845Z,4.60
2023-04-12T03:26:09.952Z,4.65
2023-04-12T03:26:42.271Z,4.61
2023-04-12T03:27:13.883Z,4.57
2023-04-12T03:27:46.009Z,4.57
2023-04-12T03:28:17.658Z,4.57
2023-04-12T03:28:49.513Z,4.62
2023-04-12T03:29:22.195Z,4.57
2023-04-12T03:29:53.868Z,4.60
2023-04-12T03:30:25.619Z,4.56
2023-04-12T03:30:57.454Z,4.53
2023-04-12T03:31:29.147Z,4.53
2023-04-12T03:32:00.852Z,4.53
2023-04-12T03:32:32.500Z,4.47
2023-04-12T03:33:04.143Z,4.50
2023-04-12T03:33:35.782Z,4.51
2023-04-12T03:34:08.255Z,4.43
2023-04-12T03:34:39.845Z,4.49
2023-04-12T03:35:12.104Z,4.49
2023-04-12T03:35:43.837Z,4.49
2023-04-12T03:36:15.784Z,4.40
2023-04-12T03:36:47.459Z,4.34
2023-04-12T03:37:19.634Z,4.40
2023-04-12T03:37:51.787Z,4.43
2023-04-12T03:38:23.651Z,4.32
2023-04-12T03:38:55.815Z,4.39
2023-04-12T03:39:27.815Z,4.41
2023-04-12T03:39:59.714Z,4.39
2023-04-12T03:40:31.295Z,4.37
2023-04-12T03:41:02.938Z,4.34
2023-04-12T03:41:34.606Z,4.33
2023-04-12T03:42:06.242Z,4.37
2023-04-12T03:42:37.820Z,4.37
2023-04-12T03:43:09.434Z,4.36
2023-04-12T03:43:42.612Z,4.37
2023-04-12T03:44:14.410Z,4.33
2023-04-12T03:44:46.113Z,4.32
2023-04-12T03:45:17.800Z,4.30
2023-04-12T03:45:49.651Z,4.30
2023-04-12T03:46:21.412Z,4.34
2023-04-12T03:46:53.984Z,4.37
2023-04-12T03:47:25.823Z,4.34
2023-04-12T03:47:57.550Z,4.33
2023-04-12T03:48:29.265Z,4.34
2023-04-12T03:49:00.843Z,4.32
2023-04-12T03:49:32.885Z,4.30
2023-04-12T03:50:11.704Z,4.33
2023-04-12T03:50:48.486Z,4.36
2023-04-12T03:51:22.336Z,4.32
2023-04-12T03:51:54.078Z,4.32
2023-04-12T03:52:25.796Z,4.32
2023-04-12T03:52:57.417Z,4.32
2023-04-12T03:53:30.868Z,4.30
2023-04-12T03:54:02.960Z,4.32
2023-04-12T03:54:34.656Z,4.29
2023-04-12T03:55:07.843Z,4.32
2023-04-12T03:55:40.623Z,4.34
2023-04-12T03:56:12.830Z,4.32
2023-04-12T03:56:46.105Z,4.36
2023-04-12T03:57:18.016Z,4.34
2023-04-12T03:57:49.653Z,4.36
2023-04-12T03:58:21.338Z,4.40
2023-04-12T03:58:52.902Z,4.40
2023-04-12T03:59:24.511Z,4.41
2023-04-12T03:59:56.112Z,4.46
2023-04-12T04:00:27.723Z,4.47
2023-04-12T04:01:01.654Z,4.37
2023-04-12T04:01:36.696Z,4.40
2023-04-12T04:02:09.226Z,4.40
2023-04-12T04:02:41.071Z,4.43
2023-04-12T04:03:13.441Z,4.46
2023-04-12T04:03:46.474Z,4.44
2023-04-12T04:04:18.600Z,4.46
2023-04-12T04:04:51.684Z,4.46
2023-04-12T04:05:23.419Z,4.43
2023-04-12T04:05:56.410Z,4.43
2023-04-12T04:06:29.816Z,4.46
2023-04-12T04:07:02.613Z,4.51
2023-04-12T04:07:34.251Z,4.49
2023-04-12T04:08:07.334Z,4.54
2023-04-12T04:08:39.107Z,4.50
2023-04-12T04:09:10.788Z,4.54
2023-04-12T04:09:42.415Z,4.51
2023-04-12T04:10:14.062Z,4.47
2023-04-12T04:10:46.425Z,4.50
2023-04-12T04:11:18.025Z,4.46
2023-04-12T04:11:50.663Z,4.50
2023-04-12T04:12:22.263Z,4.50
2023-04-12T04:12:54.551Z,4.47
2023-04-12T04:13:26.552Z,4.49
2023-04-12T04:13:58.396Z,4.49
2023-04-12T04:14:30.356Z,4.51
2023-04-12T04:15:01.986Z,4.43
2023-04-12T04:15:33.625Z,4.39
2023-04-12T04:16:07.187Z,4.40
2023-04-12T04:16:38.974Z,4.46
2023-04-12T04:17:10.773Z,4.37
2023-04-12T04:17:43.107Z,4.40
2023-04-12T04:18:14.738Z,4.39
2023-04-12T04:18:46.458Z,4.34
2023-04-12T04:19:18.092Z,4.34
2023-04-12T04:19:49.894Z,4.36
2023-04-12T04:20:21.711Z,4.36
2023-04-12T04:20:53.385Z,4.33
2023-04-12T04:21:25.006Z,4.37
2023-04-12T04:21:56.904Z,4.36
2023-04-12T04:22:29.515Z,4.39
2023-04-12T04:23:01.140Z,4.39
2023-04-12T04:23:39.599Z,4.46
2023-04-12T04:24:11.638Z,4.50
2023-04-12T04:24:43.340Z,4.49
2023-04-12T04:25:15.819Z,4.53
2023-04-12T04:25:47.450Z,4.58
2023-04-12T04:26:19.181Z,4.61
2023-04-12T04:26:54.320Z,4.61
2023-04-12T04:27:26.024Z,4.56
2023-04-12T04:27:59.715Z,4.60
2023-04-12T04:28:31.616Z,4.60
2023-04-12T04:29:04.867Z,4.68
2023-04-12T04:29:44.145Z,4.64
2023-04-12T04:30:16.924Z,4.60
2023-04-12T04:30:48.523Z,4.64
2023-04-12T04:31:22.401Z,4.61
2023-04-12T04:31:54.429Z,4.54
2023-04-12T04:32:26.046Z,4.64
2023-04-12T04:32:58.312Z,4.67
2023-04-12T04:33:29.967Z,4.67
2023-04-12T04:34:03.468Z,4.67
2023-04-12T04:34:35.083Z,4.70
2023-04-12T04:35:07.712Z,4.74
2023-04-12T04:35:40.912Z,4.64
2023-04-12T04:36:13.777Z,4.74
2023-04-12T04:36:45.595Z,4.72
2023-04-12T04:37:18.934Z,4.72
2023-04-12T04:37:52.788Z,4.78
2023-04-12T04:38:26.236Z,4.77
2023-04-12T04:38:58.266Z,4.77
2023-04-12T04:39:29.893Z,4.81
2023-04-12T04:40:08.149Z,4.85
2023-04-12T04:40:39.788Z,4.92
2023-04-12T04:41:12.387Z,4.87
2023-04-12T04:41:45.000Z,4.81
2023-04-12T04:42:16.655Z,4.88
2023-04-12T04:42:55.139Z,4.92
2023-04-12T04:43:26.752Z,4.93
2023-04-12T04:44:00.610Z,5.01
2023-04-12T04:44:36.128Z,5.02
2023-04-12T04:45:13.903Z,4.96
2023-04-12T04:45:48.918Z,5.08
2023-04-12T04:46:24.016Z,5.04
2023-04-12T04:46:56.727Z,5.11
2023-04-12T04:47:30.649Z,5.15
2023-04-12T04:48:03.698Z,5.09
2023-04-12T04:48:36.320Z,5.12
2023-04-12T04:49:08.068Z,5.09
2023-04-12T04:49:39.663Z,5.12
2023-04-12T04:50:11.416Z,5.09
2023-04-12T04:50:43.817Z,5.09
2023-04-12T04:51:15.651Z,5.08
2023-04-12T04:51:47.292Z,4.96
2023-04-12T04:52:18.848Z,5.02
2023-04-12T04:52:51.184Z,5.08
2023-04-12T04:53:22.963Z,5.07
2023-04-12T04:53:54.766Z,5.11
2023-04-12T04:54:26.626Z,5.16
2023-04-12T04:54:58.291Z,5.23
2023-04-12T04:55:30.514Z,5.25
2023-04-12T04:56:02.221Z,5.28
2023-04-12T04:56:33.899Z,5.29
2023-04-12T04:57:08.025Z,5.33
2023-04-12T04:57:39.648Z,5.39
2023-04-12T04:58:11.931Z,5.40
2023-04-12T04:58:43.536Z,5.46
2023-04-12T04:59:15.303Z,5.42
2023-04-12T04:59:46.923Z,5.47
2023-04-12T05:00:18.808Z,5.51
2023-04-12T05:00:50.568Z,5.53
2023-04-12T05:01:25.952Z,5.59
2023-04-12T05:01:57.643Z,5.59
2023-04-12T05:02:29.277Z,5.63
2023-04-12T05:03:00.998Z,5.67
2023-04-12T05:03:34.228Z,5.70
2023-04-12T05:04:06.209Z,5.74
2023-04-12T05:04:38.012Z,5.71
2023-04-12T05:05:10.804Z,5.73
2023-04-12T05:05:42.401Z,5.77
2023-04-12T05:06:14.034Z,5.80
2023-04-12T05:06:46.548Z,5.88
2023-04-12T05:07:18.190Z,5.90
2023-04-12T05:07:49.957Z,5.99
2023-04-12T05:08:22.035Z,5.94
2023-04-12T05:08:53.655Z,5.95
2023-04-12T05:09:25.231Z,6.02
2023-04-12T05:09:56.782Z,6.08
2023-04-12T05:10:28.367Z,6.09
2023-04-12T05:10:59.967Z,6.11
2023-04-12T05:11:31.650Z,6.11
2023-04-12T05:12:03.713Z,6.14
2023-04-12T05:12:36.006Z,6.14
2023-04-12T05:13:07.865Z,6.17
2023-04-12T05:13:39.468Z,6.17
2023-04-12T05:14:12.644Z,6.25
2023-04-12T05:14:48.076Z,6.29
2023-04-12T05:15:23.226Z,6.30
2023-04-12T05:15:54.855Z,6.28
2023-04-12T05:16:26.500Z,6.29
2023-04-12T05:16:58.224Z,6.33
2023-04-12T05:17:31.041Z,6.32
2023-04-12T05:18:02.733Z,6.36
2023-04-12T05:18:34.412Z,6.42
2023-04-12T05:19:06.141Z,6.46
2023-04-12T05:19:37.818Z,6.53
2023-04-12T05:20:11.063Z,6.65
2023-04-12T05:20:43.216Z,6.66
2023-04-12T05:21:14.840Z,6.63
2023-04-12T05:21:46.565Z,6.57
2023-04-12T05:22:20.630Z,6.63
2023-04-12T05:22:52.292Z,6.62
2023-04-12T05:23:23.997Z,6.63
2023-04-12T05:23:55.715Z,6.65
2023-04-12T05:24:27.327Z,6.63
2023-04-12T05:24:58.921Z,6.57
2023-04-12T05:25:30.847Z,6.60
2023-04-12T05:26:02.453Z,6.60
2023-04-12T05:26:34.437Z,6.63
2023-04-12T05:27:06.076Z,6.66
2023-04-12T05:27:37.626Z,6.66
2023-04-12T05:28:14.339Z,6.75
2023-04-12T05:28:46.125Z,6.86
2023-04-12T05:29:17.716Z,6.86
2023-04-12T05:29:49.563Z,6.93
2023-04-12T05:30:21.353Z,6.91
2023-04-12T05:30:53.006Z,6.87
2023-04-12T05:31:24.852Z,6.93
2023-04-12T05:31:56.587Z,6.96
2023-04-12T05:32:28.288Z,7.00
2023-04-12T05:33:00.043Z,7.04
2023-04-12T05:33:33.361Z,7.07
2023-04-12T05:34:05.137Z,7.01
2023-04-12T05:34:37.296Z,7.00
2023-04-12T05:35:09.191Z,6.98
2023-04-12T05:35:40.911Z,6.88
2023-04-12T05:36:12.605Z,6.98
2023-04-12T05:36:44.637Z,7.00
2023-04-12T05:37:16.497Z,6.98
2023-04-12T05:37:48.208Z,7.01
2023-04-12T05:38:19.913Z,7.00
2023-04-12T05:38:52.410Z,7.11
2023-04-12T05:39:24.322Z,7.19
2023-04-12T05:39:56.145Z,7.22
2023-04-12T05:40:27.884Z,7.25
2023-04-12T05:40:59.750Z,7.25
2023-04-12T05:41:31.533Z,7.31
2023-04-12T05:42:03.211Z,7.29
2023-04-12T05:42:34.990Z,7.29
2023-04-12T05:43:06.640Z,7.29
2023-04-12T05:43:38.405Z,7.31
2023-04-12T05:44:10.093Z,7.38
2023-04-12T05:44:41.914Z,7.41
2023-04-12T05:45:13.567Z,7.44
2023-04-12T05:45:45.352Z,7.48
2023-04-12T05:46:17.013Z,7.62
2023-04-12T05:46:48.724Z,7.69
2023-04-12T05:47:20.580Z,7.80
2023-04-12T05:47:53.504Z,7.90
2023-04-12T05:48:25.598Z,7.98
2023-04-12T05:48:57.570Z,7.93
2023-04-12T05:49:31.504Z,7.96
2023-04-12T05:50:05.702Z,7.94
2023-04-12T05:50:38.621Z,8.01
2023-04-12T05:51:10.460Z,7.86
2023-04-12T05:51:42.332Z,7.85
2023-04-12T05:52:14.330Z,7.91
2023-04-12T05:52:48.776Z,7.98
2023-04-12T05:53:22.126Z,8.10
2023-04-12T05:53:54.216Z,8.10
2023-04-12T05:54:26.192Z,8.21
2023-04-12T05:54:58.007Z,8.35
2023-04-12T05:55:30.272Z,8.34
2023-04-12T05:56:02.183Z,8.55
2023-04-12T05:56:34.308Z,8.51
2023-04-12T05:57:06.674Z,8.44
2023-04-12T05:57:38.868Z,8.40
2023-04-12T05:58:10.706Z,8.38
2023-04-12T05:58:42.698Z,8.45
2023-04-12T05:59:14.586Z,8.54
2023-04-12T05:59:46.332Z,8.58
2023-04-12T06:00:18.902Z,8.55
2023-04-12T06:00:51.754Z,8.55
2023-04-12T06:01:34.614Z,8.56
2023-04-12T06:02:07.672Z,8.42
2023-04-12T06:02:40.571Z,8.42
2023-04-12T06:03:12.615Z,8.52
2023-04-12T06:03:44.909Z,8.65
2023-04-12T06:04:17.065Z,8.66
2023-04-12T06:04:51.199Z,8.73
2023-04-12T06:05:24.399Z,8.71
2023-04-12T06:05:56.629Z,8.82
2023-04-12T06:06:30.720Z,8.89
2023-04-12T06:07:02.756Z,8.85
2023-04-12T06:07:35.525Z,8.96
2023-04-12T06:08:08.540Z,9.06
2023-04-12T06:08:40.690Z,9.13
2023-04-12T06:09:12.512Z,9.24
2023-04-12T06:09:44.340Z,9.40
2023-04-12T06:10:17.667Z,9.34
2023-04-12T06:10:50.489Z,9.59
2023-04-12T06:11:22.364Z,9.78
2023-04-12T06:11:54.251Z,10.01
2023-04-12T06:12:26.133Z,10.40
2023-04-12T06:12:58.113Z,10.92
2023-04-12T06:13:29.920Z,10.77
2023-04-12T06:14:02.024Z,11.25
2023-04-12T06:14:33.922Z,11.21
2023-04-12T06:15:07.012Z,11.12
2023-04-12T06:15:39.071Z,11.35
2023-04-12T06:16:12.254Z,11.46
2023-04-12T06:16:44.293Z,10.97
2023-04-12T06:17:16.380Z,10.59
2023-04-12T06:17:51.965Z,10.70
2023-04-12T06:18:23.804Z,10.80
2023-04-12T06:18:55.772Z,10.94
2023-04-12T06:19:27.720Z,10.94
2023-04-12T06:19:59.870Z,10.53
2023-04-12T06:20:31.897Z,10.28
2023-04-12T06:21:05.007Z,9.93
2023-04-12T06:21:37.344Z,9.84
2023-04-12T06:22:09.484Z,9.70
2023-04-12T06:22:41.291Z,9.44
2023-04-12T06:23:13.171Z,9.26
2023-04-12T06:23:45.146Z,9.22
2023-04-12T06:24:17.009Z,8.99
2023-04-12T06:24:48.798Z,9.04
2023-04-12T06:25:21.484Z,9.04
2023-04-12T06:25:53.711Z,9.07
2023-04-12T06:26:25.577Z,9.03
2023-04-12T06:26:57.979Z,9.00
2023-04-12T06:27:30.898Z,8.93
2023-04-12T06:28:03.068Z,8.92
2023-04-12T06:28:35.118Z,9.07
2023-04-12T06:29:07.055Z,9.09
2023-04-12T06:29:38.704Z,8.95
2023-04-12T06:30:10.778Z,9.03
2023-04-12T06:30:43.296Z,8.99
2023-04-12T06:31:17.334Z,8.97
2023-04-12T06:31:49.099Z,9.09
2023-04-12T06:32:20.969Z,9.09
2023-04-12T06:32:52.764Z,9.12
2023-04-12T06:33:24.539Z,9.09
2023-04-12T06:33:56.193Z,9.16
2023-04-12T06:34:27.956Z,9.12
2023-04-12T06:34:59.668Z,9.04
2023-04-12T06:35:31.270Z,9.16
2023-04-12T06:36:03.248Z,9.20
2023-04-12T06:36:34.984Z,9.24
2023-04-12T06:37:06.718Z,9.30
2023-04-12T06:37:38.396Z,9.35
2023-04-12T06:38:10.189Z,9.43
2023-04-12T06:38:43.299Z,9.54
2023-04-12T06:39:16.398Z,9.48
2023-04-12T06:39:47.990Z,9.48
2023-04-12T06:40:19.720Z,9.57
2023-04-12T06:40:51.853Z,9.55
2023-04-12T06:41:23.567Z,9.62
2023-04-12T06:41:57.700Z,9.57
2023-04-12T06:42:29.392Z,9.59
2023-04-12T06:43:01.044Z,9.59
2023-04-12T06:43:38.972Z,9.67
2023-04-12T06:44:10.939Z,9.86
2023-04-12T06:44:42.646Z,9.88
2023-04-12T06:45:14.483Z,10.03
2023-04-12T06:45:46.748Z,10.29
2023-04-12T06:46:26.569Z,10.29
2023-04-12T06:46:58.173Z,10.28
2023-04-12T06:47:30.221Z,10.29
2023-04-12T06:48:01.998Z,10.40
2023-04-12T06:48:33.648Z,10.50
2023-04-12T06:49:05.399Z,10.61
2023-04-12T06:49:36.979Z,10.77
2023-04-12T06:50:08.996Z,11.32
2023-04-12T06:50:40.633Z,11.44
2023-04-12T06:51:15.247Z,11.50
2023-04-12T06:51:46.842Z,12.05
2023-04-12T06:52:18.955Z,11.86
2023-04-12T06:52:50.877Z,11.55
2023-04-12T06:53:23.010Z,11.62
2023-04-12T06:53:56.241Z,11.49
2023-04-12T06:54:27.839Z,11.77
2023-04-12T06:54:59.478Z,11.74
2023-04-12T06:55:31.140Z,11.30
2023-04-12T06:56:06.151Z,11.28
2023-04-12T06:56:38.427Z,11.28
2023-04-12T06:57:13.727Z,11.12
2023-04-12T06:57:46.209Z,11.16
2023-04-12T06:58:18.019Z,11.01
2023-04-12T06:58:49.893Z,10.78
2023-04-12T06:59:21.481Z,10.30
2023-04-12T06:59:53.048Z,10.46
2023-04-12T07:00:25.009Z,10.59
2023-04-12T07:01:05.541Z,10.47
2023-04-12T07:01:37.298Z,10.44
2023-04-12T07:02:09.350Z,10.53
2023-04-12T07:02:41.195Z,10.64
2023-04-12T07:03:12.980Z,10.75
2023-04-12T07:03:44.842Z,10.65
2023-04-12T07:04:17.125Z,10.60
2023-04-12T07:04:54.183Z,10.90
2023-04-12T07:05:25.916Z,10.85
2023-04-12T07:05:57.619Z,11.14
2023-04-12T07:06:29.205Z,11.21
2023-04-12T07:07:01.472Z,11.02
2023-04-12T07:07:33.158Z,11.35
2023-04-12T07:08:05.471Z,11.52
2023-04-12T07:08:37.250Z,11.66
2023-04-12T07:09:09.039Z,11.81
2023-04-12T07:09:40.950Z,11.88
2023-04-12T07:10:12.629Z,12.14
2023-04-12T07:10:44.211Z,12.32
2023-04-12T07:11:21.589Z,12.59
2023-04-12T07:11:53.893Z,13.06
2023-04-12T07:12:25.671Z,13.24
2023-04-12T07:12:59.209Z,13.37
2023-04-12T07:13:31.459Z,13.47
2023-04-12T07:14:03.122Z,13.66
2023-04-12T07:14:34.791Z,14.01
2023-04-12T07:15:06.891Z,14.41
2023-04-12T07:15:38.528Z,14.67
2023-04-12T07:16:10.418Z,14.89
2023-04-12T07:16:44.645Z,15.08
2023-04-12T07:17:16.288Z,15.08
2023-04-12T07:17:47.983Z,15.59
2023-04-12T07:18:19.870Z,15.83
2023-04-12T07:18:51.688Z,16.28
2023-04-12T07:19:26.312Z,16.39
2023-04-12T07:19:58.858Z,17.02
2023-04-12T07:20:32.369Z,16.97
2023-04-12T07:21:07.833Z,16.99